sensor_id;sensor_type;location;lat;lon;timestamp;P1;durP1;ratioP1;P2;durP2;ratioP2
33162;SDS011;29282;45.656;11.302;2022-12-10T00:01:39;8.88;;;6.88;;
33162;SDS011;29282;45.656;11.302;2022-12-10T00:04:06;10.07;;;7.43;;
33162;SDS011;29282;45.656;11.302;2022-12-10T00:06:33;8.40;;;7.05;;
33162;SDS011;29282;45.656;11.302;2022-12-10T00:09:01;9.25;;;7.50;;
33162;SDS011;29282;45.656;11.302;2022-12-10T00:11:28;10.43;;;7.25;;
33162;SDS011;29282;45.656;11.302;2022-12-10T00:13:55;9.07;;;7.45;;
33162;SDS011;29282;45.656;11.302;2022-12-10T00:16:22;8.68;;;6.78;;
33162;SDS011;29282;45.656;11.302;2022-12-10T00:18:49;10.18;;;7.20;;
33162;SDS011;29282;45.656;11.302;2022-12-10T00:21:17;8.50;;;7.05;;
33162;SDS011;29282;45.656;11.302;2022-12-10T00:23:45;8.80;;;6.75;;
33162;SDS011;29282;45.656;11.302;2022-12-10T00:28:41;10.77;;;7.10;;
33162;SDS011;29282;45.656;11.302;2022-12-10T00:31:11;9.02;;;7.35;;
33162;SDS011;29282;45.656;11.302;2022-12-10T00:33:39;9.70;;;7.22;;
33162;SDS011;29282;45.656;11.302;2022-12-10T00:36:07;9.18;;;7.25;;
33162;SDS011;29282;45.656;11.302;2022-12-10T00:38:38;8.50;;;6.88;;
33162;SDS011;29282;45.656;11.302;2022-12-10T00:41:04;9.80;;;7.35;;
33162;SDS011;29282;45.656;11.302;2022-12-10T00:43:30;10.05;;;7.60;;
33162;SDS011;29282;45.656;11.302;2022-12-10T00:45:56;9.35;;;6.72;;
33162;SDS011;29282;45.656;11.302;2022-12-10T00:48:22;8.85;;;7.30;;
33162;SDS011;29282;45.656;11.302;2022-12-10T00:51:23;8.18;;;7.22;;
33162;SDS011;29282;45.656;11.302;2022-12-10T00:53:45;8.60;;;6.90;;
33162;SDS011;29282;45.656;11.302;2022-12-10T00:56:13;8.57;;;6.80;;
33162;SDS011;29282;45.656;11.302;2022-12-10T00:58:39;8.35;;;7.30;;
33162;SDS011;29282;45.656;11.302;2022-12-10T01:01:06;9.43;;;7.47;;
33162;SDS011;29282;45.656;11.302;2022-12-10T01:03:32;8.23;;;7.07;;
33162;SDS011;29282;45.656;11.302;2022-12-10T01:05:57;9.13;;;7.25;;
33162;SDS011;29282;45.656;11.302;2022-12-10T01:08:33;9.43;;;7.10;;
33162;SDS011;29282;45.656;11.302;2022-12-10T01:10:58;8.85;;;6.95;;
33162;SDS011;29282;45.656;11.302;2022-12-10T01:13:24;8.00;;;6.97;;
33162;SDS011;29282;45.656;11.302;2022-12-10T01:15:49;8.68;;;7.30;;
33162;SDS011;29282;45.656;11.302;2022-12-10T01:18:15;8.85;;;7.07;;
33162;SDS011;29282;45.656;11.302;2022-12-10T01:20:40;8.82;;;7.15;;
33162;SDS011;29282;45.656;11.302;2022-12-10T01:23:06;9.27;;;7.60;;
33162;SDS011;29282;45.656;11.302;2022-12-10T01:25:31;8.45;;;7.05;;
33162;SDS011;29282;45.656;11.302;2022-12-10T01:27:57;8.90;;;6.95;;
33162;SDS011;29282;45.656;11.302;2022-12-10T01:30:22;8.13;;;6.78;;
33162;SDS011;29282;45.656;11.302;2022-12-10T01:32:47;9.60;;;6.72;;
33162;SDS011;29282;45.656;11.302;2022-12-10T01:35:13;8.68;;;7.25;;
33162;SDS011;29282;45.656;11.302;2022-12-10T01:37:39;8.65;;;6.90;;
33162;SDS011;29282;45.656;11.302;2022-12-10T01:40:04;9.57;;;7.10;;
33162;SDS011;29282;45.656;11.302;2022-12-10T01:42:30;8.80;;;7.07;;
33162;SDS011;29282;45.656;11.302;2022-12-10T01:44:58;8.68;;;6.90;;
33162;SDS011;29282;45.656;11.302;2022-12-10T01:47:26;8.70;;;6.78;;
33162;SDS011;29282;45.656;11.302;2022-12-10T01:49:51;7.95;;;6.90;;
33162;SDS011;29282;45.656;11.302;2022-12-10T01:52:18;8.70;;;6.50;;
33162;SDS011;29282;45.656;11.302;2022-12-10T01:54:44;8.23;;;6.68;;
33162;SDS011;29282;45.656;11.302;2022-12-10T01:57:15;9.48;;;7.28;;
33162;SDS011;29282;45.656;11.302;2022-12-10T01:59:43;9.45;;;7.55;;
33162;SDS011;29282;45.656;11.302;2022-12-10T02:02:17;8.98;;;6.80;;
33162;SDS011;29282;45.656;11.302;2022-12-10T02:05:07;9.15;;;6.68;;
33162;SDS011;29282;45.656;11.302;2022-12-10T02:12:58;8.52;;;7.18;;
33162;SDS011;29282;45.656;11.302;2022-12-10T02:20:56;7.90;;;6.65;;
33162;SDS011;29282;45.656;11.302;2022-12-10T02:28:33;7.65;;;6.60;;
33162;SDS011;29282;45.656;11.302;2022-12-10T02:31:17;8.25;;;6.80;;
33162;SDS011;29282;45.656;11.302;2022-12-10T02:33:48;8.48;;;6.15;;
33162;SDS011;29282;45.656;11.302;2022-12-10T02:36:16;8.95;;;6.68;;
33162;SDS011;29282;45.656;11.302;2022-12-10T02:38:45;8.48;;;6.75;;
33162;SDS011;29282;45.656;11.302;2022-12-10T02:41:16;9.25;;;6.57;;
33162;SDS011;29282;45.656;11.302;2022-12-10T02:43:47;7.45;;;6.50;;
33162;SDS011;29282;45.656;11.302;2022-12-10T02:46:17;7.47;;;6.45;;
33162;SDS011;29282;45.656;11.302;2022-12-10T02:48:43;8.30;;;6.43;;
33162;SDS011;29282;45.656;11.302;2022-12-10T02:51:11;8.38;;;6.55;;
33162;SDS011;29282;45.656;11.302;2022-12-10T02:53:43;7.88;;;6.53;;
33162;SDS011;29282;45.656;11.302;2022-12-10T02:59:01;8.50;;;6.45;;
33162;SDS011;29282;45.656;11.302;2022-12-10T03:01:43;7.93;;;6.43;;
33162;SDS011;29282;45.656;11.302;2022-12-10T03:04:22;7.55;;;6.65;;
33162;SDS011;29282;45.656;11.302;2022-12-10T03:06:58;8.95;;;6.93;;
33162;SDS011;29282;45.656;11.302;2022-12-10T03:12:36;8.73;;;6.65;;
33162;SDS011;29282;45.656;11.302;2022-12-10T03:15:07;8.90;;;6.70;;
33162;SDS011;29282;45.656;11.302;2022-12-10T03:17:35;8.77;;;6.93;;
33162;SDS011;29282;45.656;11.302;2022-12-10T03:20:03;7.60;;;6.43;;
33162;SDS011;29282;45.656;11.302;2022-12-10T03:22:33;7.50;;;6.70;;
33162;SDS011;29282;45.656;11.302;2022-12-10T03:25:00;8.20;;;6.50;;
33162;SDS011;29282;45.656;11.302;2022-12-10T03:27:27;9.25;;;6.55;;
33162;SDS011;29282;45.656;11.302;2022-12-10T03:29:54;7.35;;;6.35;;
33162;SDS011;29282;45.656;11.302;2022-12-10T03:32:23;6.88;;;6.00;;
33162;SDS011;29282;45.656;11.302;2022-12-10T03:34:51;7.25;;;6.00;;
33162;SDS011;29282;45.656;11.302;2022-12-10T03:37:21;7.07;;;6.07;;
33162;SDS011;29282;45.656;11.302;2022-12-10T03:39:48;8.68;;;6.40;;
33162;SDS011;29282;45.656;11.302;2022-12-10T03:42:14;7.60;;;6.20;;
33162;SDS011;29282;45.656;11.302;2022-12-10T03:44:40;7.65;;;5.93;;
33162;SDS011;29282;45.656;11.302;2022-12-10T03:47:06;8.50;;;6.93;;
33162;SDS011;29282;45.656;11.302;2022-12-10T03:49:35;6.47;;;5.43;;
33162;SDS011;29282;45.656;11.302;2022-12-10T03:52:01;6.72;;;5.65;;
33162;SDS011;29282;45.656;11.302;2022-12-10T03:54:27;8.32;;;6.22;;
33162;SDS011;29282;45.656;11.302;2022-12-10T03:56:52;6.78;;;5.80;;
33162;SDS011;29282;45.656;11.302;2022-12-10T03:59:18;6.25;;;5.32;;
33162;SDS011;29282;45.656;11.302;2022-12-10T04:01:43;6.65;;;5.93;;
33162;SDS011;29282;45.656;11.302;2022-12-10T04:04:09;6.10;;;5.50;;
33162;SDS011;29282;45.656;11.302;2022-12-10T04:06:36;6.80;;;5.78;;
33162;SDS011;29282;45.656;11.302;2022-12-10T04:09:03;7.57;;;5.53;;
33162;SDS011;29282;45.656;11.302;2022-12-10T04:11:28;6.78;;;5.68;;
33162;SDS011;29282;45.656;11.302;2022-12-10T04:13:54;6.47;;;5.60;;
33162;SDS011;29282;45.656;11.302;2022-12-10T04:16:38;6.43;;;5.43;;
33162;SDS011;29282;45.656;11.302;2022-12-10T04:19:05;6.10;;;5.50;;
33162;SDS011;29282;45.656;11.302;2022-12-10T04:21:33;5.72;;;4.97;;
33162;SDS011;29282;45.656;11.302;2022-12-10T04:24:19;5.97;;;5.38;;
33162;SDS011;29282;45.656;11.302;2022-12-10T04:27:10;6.85;;;5.60;;
33162;SDS011;29282;45.656;11.302;2022-12-10T04:29:37;6.80;;;5.65;;
33162;SDS011;29282;45.656;11.302;2022-12-10T04:32:04;5.72;;;5.13;;
33162;SDS011;29282;45.656;11.302;2022-12-10T04:34:30;5.97;;;5.32;;
33162;SDS011;29282;45.656;11.302;2022-12-10T04:36:57;6.25;;;5.43;;
33162;SDS011;29282;45.656;11.302;2022-12-10T04:39:23;6.43;;;5.80;;
33162;SDS011;29282;45.656;11.302;2022-12-10T04:41:49;6.60;;;5.57;;
33162;SDS011;29282;45.656;11.302;2022-12-10T04:44:15;5.40;;;4.88;;
33162;SDS011;29282;45.656;11.302;2022-12-10T04:46:41;5.57;;;5.05;;
33162;SDS011;29282;45.656;11.302;2022-12-10T04:49:06;5.57;;;4.93;;
33162;SDS011;29282;45.656;11.302;2022-12-10T04:51:32;6.28;;;5.43;;
33162;SDS011;29282;45.656;11.302;2022-12-10T04:53:58;5.90;;;5.05;;
33162;SDS011;29282;45.656;11.302;2022-12-10T04:56:24;6.03;;;4.90;;
33162;SDS011;29282;45.656;11.302;2022-12-10T04:58:49;6.35;;;4.68;;
33162;SDS011;29282;45.656;11.302;2022-12-10T05:01:15;5.78;;;4.80;;
33162;SDS011;29282;45.656;11.302;2022-12-10T05:03:42;5.75;;;4.72;;
33162;SDS011;29282;45.656;11.302;2022-12-10T05:06:10;5.57;;;4.95;;
33162;SDS011;29282;45.656;11.302;2022-12-10T05:08:37;5.30;;;4.70;;
33162;SDS011;29282;45.656;11.302;2022-12-10T05:11:05;5.30;;;4.80;;
33162;SDS011;29282;45.656;11.302;2022-12-10T05:13:38;5.68;;;5.10;;
33162;SDS011;29282;45.656;11.302;2022-12-10T05:16:05;5.35;;;4.82;;
33162;SDS011;29282;45.656;11.302;2022-12-10T05:18:32;5.50;;;4.90;;
33162;SDS011;29282;45.656;11.302;2022-12-10T05:20:58;5.00;;;4.45;;
33162;SDS011;29282;45.656;11.302;2022-12-10T05:23:27;5.32;;;4.47;;
33162;SDS011;29282;45.656;11.302;2022-12-10T05:26:07;4.97;;;4.47;;
33162;SDS011;29282;45.656;11.302;2022-12-10T05:28:39;4.93;;;4.43;;
33162;SDS011;29282;45.656;11.302;2022-12-10T05:31:26;5.57;;;4.50;;
33162;SDS011;29282;45.656;11.302;2022-12-10T05:33:54;5.20;;;4.55;;
33162;SDS011;29282;45.656;11.302;2022-12-10T05:36:22;4.78;;;4.07;;
33162;SDS011;29282;45.656;11.302;2022-12-10T05:38:49;5.10;;;4.47;;
33162;SDS011;29282;45.656;11.302;2022-12-10T05:41:19;5.10;;;4.60;;
33162;SDS011;29282;45.656;11.302;2022-12-10T05:43:49;5.03;;;4.50;;
33162;SDS011;29282;45.656;11.302;2022-12-10T05:46:17;5.68;;;4.50;;
33162;SDS011;29282;45.656;11.302;2022-12-10T05:48:44;5.25;;;4.50;;
33162;SDS011;29282;45.656;11.302;2022-12-10T05:51:11;5.45;;;4.68;;
33162;SDS011;29282;45.656;11.302;2022-12-10T05:53:38;5.30;;;4.32;;
33162;SDS011;29282;45.656;11.302;2022-12-10T05:56:06;5.10;;;4.18;;
33162;SDS011;29282;45.656;11.302;2022-12-10T05:58:34;4.82;;;4.28;;
33162;SDS011;29282;45.656;11.302;2022-12-10T06:01:00;5.00;;;4.45;;
33162;SDS011;29282;45.656;11.302;2022-12-10T06:03:30;4.78;;;4.22;;
33162;SDS011;29282;45.656;11.302;2022-12-10T06:05:56;4.97;;;4.47;;
33162;SDS011;29282;45.656;11.302;2022-12-10T06:08:21;4.97;;;4.47;;
33162;SDS011;29282;45.656;11.302;2022-12-10T06:10:47;4.60;;;3.97;;
33162;SDS011;29282;45.656;11.302;2022-12-10T06:13:13;4.82;;;4.22;;
33162;SDS011;29282;45.656;11.302;2022-12-10T06:15:39;5.10;;;4.20;;
33162;SDS011;29282;45.656;11.302;2022-12-10T06:18:06;5.22;;;4.22;;
33162;SDS011;29282;45.656;11.302;2022-12-10T06:20:31;4.85;;;3.63;;
33162;SDS011;29282;45.656;11.302;2022-12-10T06:22:57;4.45;;;4.05;;
33162;SDS011;29282;45.656;11.302;2022-12-10T06:25:23;5.18;;;4.13;;
33162;SDS011;29282;45.656;11.302;2022-12-10T06:27:49;5.18;;;3.97;;
33162;SDS011;29282;45.656;11.302;2022-12-10T06:30:14;4.82;;;4.32;;
33162;SDS011;29282;45.656;11.302;2022-12-10T06:32:40;4.85;;;4.13;;
33162;SDS011;29282;45.656;11.302;2022-12-10T06:35:07;5.57;;;4.38;;
33162;SDS011;29282;45.656;11.302;2022-12-10T06:37:34;5.55;;;4.50;;
33162;SDS011;29282;45.656;11.302;2022-12-10T06:39:59;5.43;;;4.22;;
33162;SDS011;29282;45.656;11.302;2022-12-10T06:42:25;4.32;;;3.92;;
33162;SDS011;29282;45.656;11.302;2022-12-10T06:44:50;4.70;;;4.22;;
33162;SDS011;29282;45.656;11.302;2022-12-10T06:47:16;4.60;;;4.20;;
33162;SDS011;29282;45.656;11.302;2022-12-10T06:49:41;4.75;;;3.92;;
33162;SDS011;29282;45.656;11.302;2022-12-10T06:52:07;4.88;;;4.38;;
33162;SDS011;29282;45.656;11.302;2022-12-10T06:54:32;5.88;;;4.25;;
33162;SDS011;29282;45.656;11.302;2022-12-10T06:56:58;5.07;;;4.15;;
33162;SDS011;29282;45.656;11.302;2022-12-10T06:59:24;5.07;;;4.25;;
33162;SDS011;29282;45.656;11.302;2022-12-10T07:01:49;4.30;;;3.90;;
33162;SDS011;29282;45.656;11.302;2022-12-10T07:04:15;4.95;;;3.97;;
33162;SDS011;29282;45.656;11.302;2022-12-10T07:06:42;4.90;;;4.15;;
33162;SDS011;29282;45.656;11.302;2022-12-10T07:09:08;4.70;;;4.10;;
33162;SDS011;29282;45.656;11.302;2022-12-10T07:11:34;4.03;;;3.63;;
33162;SDS011;29282;45.656;11.302;2022-12-10T07:14:01;5.53;;;3.88;;
33162;SDS011;29282;45.656;11.302;2022-12-10T07:16:27;5.07;;;3.90;;
33162;SDS011;29282;45.656;11.302;2022-12-10T07:18:54;4.53;;;4.13;;
33162;SDS011;29282;45.656;11.302;2022-12-10T07:21:22;4.95;;;4.30;;
33162;SDS011;29282;45.656;11.302;2022-12-10T07:23:52;7.10;;;3.80;;
33162;SDS011;29282;45.656;11.302;2022-12-10T07:26:21;4.90;;;4.38;;
33162;SDS011;29282;45.656;11.302;2022-12-10T07:28:46;5.25;;;4.18;;
33162;SDS011;29282;45.656;11.302;2022-12-10T07:31:12;4.47;;;3.65;;
33162;SDS011;29282;45.656;11.302;2022-12-10T07:33:38;5.72;;;4.40;;
33162;SDS011;29282;45.656;11.302;2022-12-10T07:36:10;4.85;;;4.35;;
33162;SDS011;29282;45.656;11.302;2022-12-10T07:38:37;4.07;;;3.67;;
33162;SDS011;29282;45.656;11.302;2022-12-10T07:41:06;4.75;;;4.05;;
33162;SDS011;29282;45.656;11.302;2022-12-10T07:43:35;4.50;;;3.90;;
33162;SDS011;29282;45.656;11.302;2022-12-10T07:46:08;5.05;;;4.07;;
33162;SDS011;29282;45.656;11.302;2022-12-10T07:48:39;5.03;;;4.30;;
33162;SDS011;29282;45.656;11.302;2022-12-10T07:51:06;5.30;;;4.13;;
33162;SDS011;29282;45.656;11.302;2022-12-10T07:53:32;4.53;;;4.10;;
33162;SDS011;29282;45.656;11.302;2022-12-10T07:55:58;5.13;;;4.18;;
33162;SDS011;29282;45.656;11.302;2022-12-10T07:58:23;5.22;;;3.80;;
33162;SDS011;29282;45.656;11.302;2022-12-10T08:00:49;4.28;;;3.88;;
33162;SDS011;29282;45.656;11.302;2022-12-10T08:03:15;4.78;;;3.70;;
33162;SDS011;29282;45.656;11.302;2022-12-10T08:05:41;4.30;;;3.80;;
33162;SDS011;29282;45.656;11.302;2022-12-10T08:08:06;6.28;;;4.45;;
33162;SDS011;29282;45.656;11.302;2022-12-10T08:10:35;14.77;;;3.95;;
33162;SDS011;29282;45.656;11.302;2022-12-10T08:13:02;5.05;;;3.97;;
33162;SDS011;29282;45.656;11.302;2022-12-10T08:15:27;4.57;;;4.13;;
33162;SDS011;29282;45.656;11.302;2022-12-10T08:17:53;5.15;;;4.07;;
33162;SDS011;29282;45.656;11.302;2022-12-10T08:20:20;5.20;;;4.18;;
33162;SDS011;29282;45.656;11.302;2022-12-10T08:22:47;5.43;;;4.03;;
33162;SDS011;29282;45.656;11.302;2022-12-10T08:25:13;6.18;;;4.47;;
33162;SDS011;29282;45.656;11.302;2022-12-10T08:27:39;5.00;;;3.60;;
33162;SDS011;29282;45.656;11.302;2022-12-10T08:30:05;4.00;;;3.58;;
33162;SDS011;29282;45.656;11.302;2022-12-10T08:32:31;5.68;;;3.90;;
33162;SDS011;29282;45.656;11.302;2022-12-10T08:34:57;4.80;;;4.18;;
33162;SDS011;29282;45.656;11.302;2022-12-10T08:37:22;11.10;;;4.28;;
33162;SDS011;29282;45.656;11.302;2022-12-10T08:39:48;5.85;;;4.03;;
33162;SDS011;29282;45.656;11.302;2022-12-10T08:42:13;4.60;;;3.95;;
33162;SDS011;29282;45.656;11.302;2022-12-10T08:44:39;4.57;;;3.90;;
33162;SDS011;29282;45.656;11.302;2022-12-10T08:47:04;3.95;;;3.40;;
33162;SDS011;29282;45.656;11.302;2022-12-10T08:49:30;6.57;;;4.07;;
33162;SDS011;29282;45.656;11.302;2022-12-10T08:52:05;5.95;;;3.97;;
33162;SDS011;29282;45.656;11.302;2022-12-10T08:54:31;5.68;;;3.85;;
33162;SDS011;29282;45.656;11.302;2022-12-10T08:56:56;5.97;;;4.05;;
33162;SDS011;29282;45.656;11.302;2022-12-10T08:59:22;6.97;;;4.03;;
33162;SDS011;29282;45.656;11.302;2022-12-10T09:01:47;8.35;;;4.07;;
33162;SDS011;29282;45.656;11.302;2022-12-10T09:04:13;6.13;;;4.05;;
33162;SDS011;29282;45.656;11.302;2022-12-10T09:06:40;5.75;;;3.85;;
33162;SDS011;29282;45.656;11.302;2022-12-10T09:09:06;6.22;;;3.85;;
33162;SDS011;29282;45.656;11.302;2022-12-10T09:11:32;5.18;;;3.30;;
33162;SDS011;29282;45.656;11.302;2022-12-10T09:13:58;5.22;;;4.32;;
33162;SDS011;29282;45.656;11.302;2022-12-10T09:16:32;5.10;;;3.85;;
33162;SDS011;29282;45.656;11.302;2022-12-10T09:19:00;10.65;;;4.07;;
33162;SDS011;29282;45.656;11.302;2022-12-10T09:21:27;6.07;;;3.88;;
33162;SDS011;29282;45.656;11.302;2022-12-10T09:23:55;4.88;;;3.72;;
33162;SDS011;29282;45.656;11.302;2022-12-10T09:26:22;5.00;;;3.63;;
33162;SDS011;29282;45.656;11.302;2022-12-10T09:28:48;4.20;;;3.58;;
33162;SDS011;29282;45.656;11.302;2022-12-10T09:31:16;5.32;;;4.18;;
33162;SDS011;29282;45.656;11.302;2022-12-10T09:33:44;5.72;;;3.90;;
33162;SDS011;29282;45.656;11.302;2022-12-10T09:36:11;5.72;;;3.72;;
33162;SDS011;29282;45.656;11.302;2022-12-10T09:38:38;4.35;;;3.58;;
33162;SDS011;29282;45.656;11.302;2022-12-10T09:44:03;4.28;;;3.70;;
33162;SDS011;29282;45.656;11.302;2022-12-10T09:46:55;6.10;;;3.63;;
33162;SDS011;29282;45.656;11.302;2022-12-10T09:51:55;4.32;;;3.90;;
33162;SDS011;29282;45.656;11.302;2022-12-10T09:54:25;5.30;;;4.00;;
33162;SDS011;29282;45.656;11.302;2022-12-10T09:56:52;5.38;;;3.67;;
33162;SDS011;29282;45.656;11.302;2022-12-10T10:04:46;6.05;;;4.03;;
33162;SDS011;29282;45.656;11.302;2022-12-10T10:07:19;4.40;;;3.60;;
33162;SDS011;29282;45.656;11.302;2022-12-10T10:09:49;4.55;;;3.90;;
33162;SDS011;29282;45.656;11.302;2022-12-10T10:12:18;8.05;;;3.72;;
33162;SDS011;29282;45.656;11.302;2022-12-10T10:14:44;5.47;;;3.70;;
33162;SDS011;29282;45.656;11.302;2022-12-10T10:17:19;7.07;;;3.50;;
33162;SDS011;29282;45.656;11.302;2022-12-10T10:19:48;3.88;;;3.47;;
33162;SDS011;29282;45.656;11.302;2022-12-10T10:22:14;6.38;;;3.97;;
33162;SDS011;29282;45.656;11.302;2022-12-10T10:24:42;4.70;;;3.88;;
33162;SDS011;29282;45.656;11.302;2022-12-10T10:29:52;5.20;;;3.85;;
33162;SDS011;29282;45.656;11.302;2022-12-10T10:33:07;6.68;;;3.85;;
33162;SDS011;29282;45.656;11.302;2022-12-10T10:35:05;5.20;;;3.90;;
33162;SDS011;29282;45.656;11.302;2022-12-10T10:37:38;9.85;;;4.28;;
33162;SDS011;29282;45.656;11.302;2022-12-10T10:40:06;5.07;;;3.95;;
33162;SDS011;29282;45.656;11.302;2022-12-10T10:42:46;5.72;;;4.13;;
33162;SDS011;29282;45.656;11.302;2022-12-10T10:48:15;5.55;;;4.95;;
33162;SDS011;29282;45.656;11.302;2022-12-10T10:50:51;6.63;;;5.93;;
33162;SDS011;29282;45.656;11.302;2022-12-10T10:53:20;8.55;;;6.00;;
33162;SDS011;29282;45.656;11.302;2022-12-10T10:55:49;8.05;;;5.90;;
33162;SDS011;29282;45.656;11.302;2022-12-10T10:58:18;8.35;;;5.65;;
33162;SDS011;29282;45.656;11.302;2022-12-10T11:01:04;8.10;;;5.65;;
33162;SDS011;29282;45.656;11.302;2022-12-10T11:03:33;8.35;;;6.22;;
33162;SDS011;29282;45.656;11.302;2022-12-10T11:06:01;7.22;;;5.57;;
33162;SDS011;29282;45.656;11.302;2022-12-10T11:08:31;7.40;;;5.57;;
33162;SDS011;29282;45.656;11.302;2022-12-10T11:10:58;9.40;;;5.95;;
33162;SDS011;29282;45.656;11.302;2022-12-10T11:13:30;6.68;;;5.63;;
33162;SDS011;29282;45.656;11.302;2022-12-10T11:15:59;13.95;;;6.13;;
33162;SDS011;29282;45.656;11.302;2022-12-10T11:18:37;7.88;;;5.63;;
33162;SDS011;29282;45.656;11.302;2022-12-10T11:23:39;8.55;;;5.85;;
33162;SDS011;29282;45.656;11.302;2022-12-10T11:28:57;7.22;;;5.07;;
33162;SDS011;29282;45.656;11.302;2022-12-10T11:34:21;9.40;;;6.32;;
33162;SDS011;29282;45.656;11.302;2022-12-10T11:45:07;12.90;;;5.72;;
33162;SDS011;29282;45.656;11.302;2022-12-10T11:55:54;11.23;;;6.30;;
33162;SDS011;29282;45.656;11.302;2022-12-10T12:04:05;10.20;;;6.28;;
33162;SDS011;29282;45.656;11.302;2022-12-10T12:15:22;14.45;;;6.28;;
33162;SDS011;29282;45.656;11.302;2022-12-10T12:20:48;12.55;;;6.18;;
33162;SDS011;29282;45.656;11.302;2022-12-10T12:31:43;8.45;;;5.85;;
33162;SDS011;29282;45.656;11.302;2022-12-10T12:34:15;11.88;;;6.43;;
33162;SDS011;29282;45.656;11.302;2022-12-10T12:36:42;11.40;;;5.95;;
33162;SDS011;29282;45.656;11.302;2022-12-10T12:44:15;8.10;;;5.30;;
33162;SDS011;29282;45.656;11.302;2022-12-10T12:46:47;10.43;;;5.57;;
33162;SDS011;29282;45.656;11.302;2022-12-10T12:58:11;8.93;;;5.50;;
33162;SDS011;29282;45.656;11.302;2022-12-10T13:00:49;9.40;;;5.30;;
33162;SDS011;29282;45.656;11.302;2022-12-10T13:03:29;13.38;;;5.65;;
33162;SDS011;29282;45.656;11.302;2022-12-10T13:06:13;8.88;;;5.20;;
33162;SDS011;29282;45.656;11.302;2022-12-10T13:08:47;10.55;;;5.70;;
33162;SDS011;29282;45.656;11.302;2022-12-10T13:11:34;9.90;;;5.22;;
33162;SDS011;29282;45.656;11.302;2022-12-10T13:19:16;7.80;;;5.28;;
33162;SDS011;29282;45.656;11.302;2022-12-10T13:24:20;8.77;;;5.18;;
33162;SDS011;29282;45.656;11.302;2022-12-10T13:37:52;6.78;;;5.07;;
33162;SDS011;29282;45.656;11.302;2022-12-10T13:46:34;9.35;;;4.80;;
33162;SDS011;29282;45.656;11.302;2022-12-10T13:49:19;8.57;;;4.88;;
33162;SDS011;29282;45.656;11.302;2022-12-10T14:08:26;12.95;;;4.95;;
33162;SDS011;29282;45.656;11.302;2022-12-10T14:10:55;10.02;;;4.82;;
33162;SDS011;29282;45.656;11.302;2022-12-10T14:13:25;9.57;;;4.85;;
33162;SDS011;29282;45.656;11.302;2022-12-10T14:16:19;6.97;;;4.72;;
33162;SDS011;29282;45.656;11.302;2022-12-10T14:18:53;9.38;;;4.60;;
33162;SDS011;29282;45.656;11.302;2022-12-10T14:21:23;10.15;;;4.50;;
33162;SDS011;29282;45.656;11.302;2022-12-10T14:23:50;8.60;;;4.43;;
33162;SDS011;29282;45.656;11.302;2022-12-10T14:26:18;7.40;;;4.93;;
33162;SDS011;29282;45.656;11.302;2022-12-10T14:28:50;8.43;;;4.57;;
33162;SDS011;29282;45.656;11.302;2022-12-10T14:31:22;8.10;;;4.90;;
33162;SDS011;29282;45.656;11.302;2022-12-10T14:33:54;7.57;;;4.45;;
33162;SDS011;29282;45.656;11.302;2022-12-10T14:36:39;10.88;;;4.97;;
33162;SDS011;29282;45.656;11.302;2022-12-10T14:39:15;8.77;;;4.32;;
33162;SDS011;29282;45.656;11.302;2022-12-10T14:41:44;6.75;;;4.53;;
33162;SDS011;29282;45.656;11.302;2022-12-10T14:44:14;6.32;;;4.28;;
33162;SDS011;29282;45.656;11.302;2022-12-10T14:46:42;8.90;;;4.00;;
33162;SDS011;29282;45.656;11.302;2022-12-10T14:49:08;7.97;;;4.85;;
33162;SDS011;29282;45.656;11.302;2022-12-10T14:51:45;7.03;;;4.93;;
33162;SDS011;29282;45.656;11.302;2022-12-10T14:54:24;7.65;;;4.60;;
33162;SDS011;29282;45.656;11.302;2022-12-10T14:56:57;11.07;;;4.53;;
33162;SDS011;29282;45.656;11.302;2022-12-10T14:59:26;10.07;;;5.13;;
33162;SDS011;29282;45.656;11.302;2022-12-10T15:02:11;9.02;;;4.63;;
33162;SDS011;29282;45.656;11.302;2022-12-10T15:04:45;6.47;;;4.07;;
33162;SDS011;29282;45.656;11.302;2022-12-10T15:07:13;8.68;;;4.53;;
33162;SDS011;29282;45.656;11.302;2022-12-10T15:09:43;6.65;;;4.20;;
33162;SDS011;29282;45.656;11.302;2022-12-10T15:14:57;8.98;;;4.47;;
33162;SDS011;29282;45.656;11.302;2022-12-10T15:17:33;5.57;;;4.30;;
33162;SDS011;29282;45.656;11.302;2022-12-10T15:20:08;5.18;;;3.85;;
33162;SDS011;29282;45.656;11.302;2022-12-10T15:22:43;7.78;;;4.70;;
33162;SDS011;29282;45.656;11.302;2022-12-10T15:25:13;6.10;;;4.32;;
33162;SDS011;29282;45.656;11.302;2022-12-10T15:27:56;7.78;;;4.25;;
33162;SDS011;29282;45.656;11.302;2022-12-10T15:30:37;6.28;;;4.63;;
33162;SDS011;29282;45.656;11.302;2022-12-10T15:33:15;11.02;;;4.50;;
33162;SDS011;29282;45.656;11.302;2022-12-10T15:35:48;9.07;;;5.00;;
33162;SDS011;29282;45.656;11.302;2022-12-10T15:38:22;7.65;;;4.88;;
33162;SDS011;29282;45.656;11.302;2022-12-10T15:40:49;9.15;;;4.43;;
33162;SDS011;29282;45.656;11.302;2022-12-10T15:43:28;5.53;;;4.60;;
33162;SDS011;29282;45.656;11.302;2022-12-10T15:45:55;6.28;;;4.45;;
33162;SDS011;29282;45.656;11.302;2022-12-10T15:48:28;19.58;;;5.20;;
33162;SDS011;29282;45.656;11.302;2022-12-10T15:50:56;8.70;;;5.07;;
33162;SDS011;29282;45.656;11.302;2022-12-10T15:53:28;13.95;;;5.35;;
33162;SDS011;29282;45.656;11.302;2022-12-10T15:56:01;25.90;;;6.15;;
33162;SDS011;29282;45.656;11.302;2022-12-10T15:58:29;12.85;;;5.47;;
33162;SDS011;29282;45.656;11.302;2022-12-10T16:00:56;17.63;;;5.60;;
33162;SDS011;29282;45.656;11.302;2022-12-10T16:03:22;12.95;;;4.95;;
33162;SDS011;29282;45.656;11.302;2022-12-10T16:05:51;14.75;;;5.72;;
33162;SDS011;29282;45.656;11.302;2022-12-10T16:10:48;10.40;;;5.85;;
33162;SDS011;29282;45.656;11.302;2022-12-10T16:15:57;11.52;;;5.25;;
33162;SDS011;29282;45.656;11.302;2022-12-10T16:18:29;10.27;;;5.50;;
33162;SDS011;29282;45.656;11.302;2022-12-10T16:20:55;10.63;;;5.57;;
33162;SDS011;29282;45.656;11.302;2022-12-10T16:23:21;9.32;;;5.72;;
33162;SDS011;29282;45.656;11.302;2022-12-10T16:25:47;18.65;;;5.50;;
33162;SDS011;29282;45.656;11.302;2022-12-10T16:28:14;12.18;;;5.43;;
33162;SDS011;29282;45.656;11.302;2022-12-10T16:30:43;15.05;;;5.93;;
33162;SDS011;29282;45.656;11.302;2022-12-10T16:33:15;10.68;;;5.80;;
33162;SDS011;29282;45.656;11.302;2022-12-10T16:35:54;11.52;;;6.43;;
33162;SDS011;29282;45.656;11.302;2022-12-10T16:38:22;10.20;;;5.60;;
33162;SDS011;29282;45.656;11.302;2022-12-10T16:41:16;9.55;;;5.55;;
33162;SDS011;29282;45.656;11.302;2022-12-10T16:43:44;14.27;;;6.45;;
33162;SDS011;29282;45.656;11.302;2022-12-10T16:46:12;9.43;;;5.90;;
33162;SDS011;29282;45.656;11.302;2022-12-10T16:48:39;10.02;;;5.85;;
33162;SDS011;29282;45.656;11.302;2022-12-10T16:51:09;8.23;;;5.47;;
33162;SDS011;29282;45.656;11.302;2022-12-10T16:53:58;7.85;;;5.35;;
33162;SDS011;29282;45.656;11.302;2022-12-10T16:56:26;7.47;;;5.70;;
33162;SDS011;29282;45.656;11.302;2022-12-10T16:58:52;8.98;;;5.60;;
33162;SDS011;29282;45.656;11.302;2022-12-10T17:01:30;12.30;;;6.22;;
33162;SDS011;29282;45.656;11.302;2022-12-10T17:03:56;8.65;;;6.05;;
33162;SDS011;29282;45.656;11.302;2022-12-10T17:06:24;12.88;;;6.75;;
33162;SDS011;29282;45.656;11.302;2022-12-10T17:08:57;10.20;;;6.38;;
33162;SDS011;29282;45.656;11.302;2022-12-10T17:11:27;10.48;;;6.15;;
33162;SDS011;29282;45.656;11.302;2022-12-10T17:16:48;13.25;;;6.50;;
33162;SDS011;29282;45.656;11.302;2022-12-10T17:19:15;10.15;;;6.28;;
33162;SDS011;29282;45.656;11.302;2022-12-10T17:21:41;9.85;;;6.43;;
33162;SDS011;29282;45.656;11.302;2022-12-10T17:24:07;9.68;;;6.80;;